createdAt,value
2022-08-23T03:51:48.708Z,97668.06
2022-08-23T03:55:00.857Z,97660.31
2022-08-23T03:58:17.632Z,97671.94
2022-08-23T04:01:20.295Z,97672.94
2022-08-23T04:04:23.058Z,97678.47
2022-08-23T04:07:45.128Z,97683.97
2022-08-23T04:10:47.579Z,97689.72
2022-08-23T04:13:50.215Z,97692.56
2022-08-23T04:16:52.781Z,97689.09
2022-08-23T04:19:59.202Z,97692.56
2022-08-23T04:23:03.529Z,97685.22
2022-08-23T04:26:11.344Z,97687.47
2022-08-23T04:29:31.427Z,97683.41
2022-08-23T04:32:37.604Z,97685.84
2022-08-23T04:35:44.016Z,97690.97
2022-08-23T04:38:46.722Z,97690.75
2022-08-23T04:42:12.041Z,97702.41
2022-08-23T04:45:19.818Z,97704.84
2022-08-23T04:48:25.864Z,97702.38
2022-08-23T04:51:28.227Z,97706.09
2022-08-23T04:54:31.859Z,97704.63
2022-08-23T04:58:00.738Z,97709.78
2022-08-23T05:01:09.796Z,97713.44
2022-08-23T05:04:12.602Z,97715.06
2022-08-23T05:07:15.922Z,97717.53
2022-08-23T05:10:19.328Z,97710.78
2022-08-23T05:13:34.801Z,97715.91
2022-08-23T05:16:38.840Z,97716.31
2022-08-23T05:19:47.159Z,97718.34
2022-08-23T05:22:54.128Z,97721.78
2022-08-23T05:26:04.324Z,97718.94
2022-08-23T05:29:12.939Z,97728.56
2022-08-23T05:32:21.430Z,97723.25
2022-08-23T05:35:24.242Z,97722.44
2022-08-23T05:38:26.778Z,97736.34
2022-08-23T05:41:38.198Z,97733.88
2022-08-23T05:44:44.497Z,97727.75
2022-08-23T05:47:47.186Z,97726.53
2022-08-23T05:51:24.239Z,97734.50
2022-08-23T05:54:27.127Z,97729.78
2022-08-23T05:57:55.515Z,97739.19
2022-08-23T06:01:00.011Z,97732.63
2022-08-23T06:04:05.045Z,97745.28
2022-08-23T06:07:07.695Z,97732.97
2022-08-23T06:10:09.957Z,97733.34
2022-08-23T06:13:22.776Z,97736.84
2022-08-23T06:16:30.727Z,97742.78
2022-08-23T06:19:33.677Z,97745.84
2022-08-23T06:22:42.443Z,97740.69
2022-08-23T06:25:45.912Z,97746.41
2022-08-23T06:28:52.800Z,97741.53
2022-08-23T06:31:56.238Z,97740.19
2022-08-23T06:35:33.234Z,97738.03
2022-08-23T06:38:38.485Z,97744.69
2022-08-23T06:42:37.133Z,97747.94
2022-08-23T06:45:37.998Z,97754.50
2022-08-23T06:48:41.071Z,97762.00
2022-08-23T06:51:46.014Z,97760.16
2022-08-23T06:55:02.588Z,97753.41
2022-08-23T06:58:19.252Z,97758.00
2022-08-23T07:01:48.541Z,97756.13
2022-08-23T07:05:05.160Z,97760.88
2022-08-23T07:08:39.881Z,97763.13
2022-08-23T07:11:42.766Z,97765.03
2022-08-23T07:14:45.141Z,97764.00
2022-08-23T07:17:48.149Z,97767.56
2022-08-23T07:20:50.062Z,97769.78
2022-08-23T07:23:52.943Z,97767.06
2022-08-23T07:26:55.356Z,97781.94
2022-08-23T07:29:57.782Z,97773.22
2022-08-23T07:33:00.980Z,97793.38
2022-08-23T07:36:05.937Z,97793.56
2022-08-23T07:39:09.631Z,97795.66
2022-08-23T07:42:23.166Z,97799.28
2022-08-23T07:45:29.355Z,97816.53
2022-08-23T07:48:53.111Z,97805.81
2022-08-23T07:52:00.106Z,97818.13
2022-08-23T07:55:03.161Z,97814.88
2022-08-23T07:58:37.777Z,97816.69
2022-08-23T08:02:07.805Z,97816.69
2022-08-23T08:05:11.353Z,97830.16
2022-08-23T08:08:17.566Z,97831.44
2022-08-23T08:11:24.416Z,97825.78
2022-08-23T08:14:26.924Z,97832.78
2022-08-23T08:17:34.727Z,97840.03
2022-08-23T08:20:57.296Z,97839.16
2022-08-23T08:24:26.007Z,97834.88
2022-08-23T08:27:38.721Z,97844.34
2022-08-23T08:30:41.467Z,97844.59
2022-08-23T08:33:45.517Z,97858.16
2022-08-23T08:36:58.246Z,97861.78
2022-08-23T08:40:01.838Z,97870.06
2022-08-23T08:43:29.239Z,97877.91
2022-08-23T08:46:43.585Z,97874.78
2022-08-23T08:49:53.566Z,97872.50
2022-08-23T08:53:01.990Z,97879.03
2022-08-23T08:56:32.569Z,97889.63
2022-08-23T09:00:01.571Z,97884.50
2022-08-23T09:03:21.960Z,97893.94
2022-08-23T09:06:31.011Z,97874.38
2022-08-23T09:10:17.368Z,97882.28
2022-08-23T09:13:53.948Z,97876.41
2022-08-23T09:17:19.083Z,97886.25
2022-08-23T09:20:28.006Z,97881.75
2022-08-23T09:23:39.639Z,97880.22
2022-08-23T09:26:44.061Z,97889.06
2022-08-23T09:29:58.848Z,97890.59
2022-08-23T09:33:18.857Z,97892.88
2022-08-23T09:36:26.255Z,97892.94
2022-08-23T09:39:33.866Z,97893.81
2022-08-23T09:42:41.193Z,97891.22
2022-08-23T09:45:48.761Z,97881.28
2022-08-23T09:48:56.039Z,97881.28
2022-08-23T09:52:13.013Z,97888.78
2022-08-23T09:55:32.104Z,97886.78
2022-08-23T09:58:41.050Z,97885.75
2022-08-23T10:01:47.659Z,97884.53
2022-08-23T10:04:55.054Z,97886.88
2022-08-23T10:08:02.429Z,97885.97
2022-08-23T10:11:25.998Z,97892.47
2022-08-23T10:14:30.870Z,97900.66
2022-08-23T10:17:50.320Z,97894.13
2022-08-23T10:21:23.807Z,97896.31
2022-08-23T10:24:41.389Z,97894.94
2022-08-23T10:28:11.003Z,97893.47
2022-08-23T10:31:28.977Z,97896.09
2022-08-23T10:34:41.331Z,97905.56
2022-08-23T10:38:10.008Z,97894.78
2022-08-23T10:41:23.409Z,97890.94
2022-08-23T10:44:48.753Z,97891.75
2022-08-23T10:48:12.145Z,97895.00
2022-08-23T10:51:40.421Z,97893.88
2022-08-23T10:55:00.570Z,97897.47
2022-08-23T10:58:08.930Z,97899.34
2022-08-23T11:01:16.101Z,97892.66
2022-08-23T11:04:41.505Z,97899.44
2022-08-23T11:08:01.854Z,97901.91
2022-08-23T11:11:04.347Z,97896.25
2022-08-23T11:14:11.936Z,97895.06
2022-08-23T11:17:53.942Z,97896.81
2022-08-23T11:20:59.846Z,97906.13
2022-08-23T11:24:13.888Z,97897.69
2022-08-23T11:27:27.458Z,97896.56
2022-08-23T11:30:32.514Z,97900.81
2022-08-23T11:34:06.638Z,97895.44
2022-08-23T11:37:19.390Z,97902.53
2022-08-23T11:40:56.109Z,97905.59
2022-08-23T11:44:03.031Z,97900.78
2022-08-23T11:47:08.277Z,97898.03
2022-08-23T11:50:22.691Z,97896.91
2022-08-23T11:53:46.871Z,97895.94
2022-08-23T11:57:10.823Z,97898.88
2022-08-23T12:00:27.688Z,97897.53
2022-08-23T12:03:35.859Z,97893.25
2022-08-23T12:06:41.573Z,97899.56
2022-08-23T12:09:51.863Z,97901.13
2022-08-23T12:13:25.711Z,97916.59
2022-08-23T12:16:33.417Z,97918.00
2022-08-23T12:19:42.790Z,97913.16
2022-08-23T12:22:52.055Z,97919.81
2022-08-23T12:26:29.698Z,97918.22
2022-08-23T12:29:50.627Z,97917.78
2022-08-23T12:33:16.013Z,97920.94
2022-08-23T12:36:39.945Z,97907.75
2022-08-23T12:39:55.385Z,97903.38
2022-08-23T12:43:20.832Z,97911.09
2022-08-23T12:46:37.056Z,97915.97
2022-08-23T12:49:39.600Z,97901.94
2022-08-23T12:52:42.639Z,97907.63
2022-08-23T12:55:50.167Z,97910.09
2022-08-23T12:58:58.452Z,97916.09
2022-08-23T13:02:04.112Z,97911.50
2022-08-23T13:05:31.586Z,97911.53
2022-08-23T13:08:40.020Z,97910.28
2022-08-23T13:11:43.034Z,97906.97
2022-08-23T13:14:50.799Z,97908.97
2022-08-23T13:18:01.310Z,97909.78
2022-08-23T13:21:25.715Z,97912.91
2022-08-23T13:24:37.686Z,97907.88
2022-08-23T13:27:46.274Z,97908.81
2022-08-23T13:31:09.237Z,97910.31
2022-08-23T13:34:11.629Z,97906.69
2022-08-23T13:37:30.087Z,97914.09
2022-08-23T13:40:38.712Z,97914.38
2022-08-23T13:43:48.342Z,97909.56
2022-08-23T13:46:51.366Z,97906.00
2022-08-23T13:49:53.732Z,97898.81
2022-08-23T13:53:13.895Z,97898.44
2022-08-23T13:56:18.711Z,97900.50
2022-08-23T13:59:32.906Z,97897.44
2022-08-23T14:02:35.338Z,97893.53
2022-08-23T14:05:37.441Z,97892.19
2022-08-23T14:08:39.506Z,97894.25
2022-08-23T14:11:41.886Z,97891.34
2022-08-23T14:14:44.547Z,97885.97
2022-08-23T14:17:52.649Z,97890.69
2022-08-23T14:20:54.732Z,97887.56
2022-08-23T14:23:57.039Z,97889.22
2022-08-23T14:26:59.033Z,97892.66
2022-08-23T14:30:01.294Z,97894.69
2022-08-23T14:33:04.398Z,97897.25
2022-08-23T14:36:07.344Z,97894.00
2022-08-23T14:39:16.537Z,97898.84
2022-08-23T14:42:21.570Z,97886.66
2022-08-23T14:45:24.875Z,97903.41
2022-08-23T14:48:27.367Z,97904.84
2022-08-23T14:51:33.227Z,97912.53
2022-08-23T14:54:35.400Z,97906.91
2022-08-23T14:57:38.150Z,97906.50
2022-08-23T15:00:40.161Z,97906.94
2022-08-23T15:03:42.366Z,97911.72
2022-08-23T15:07:06.806Z,97905.69
2022-08-23T15:10:10.175Z,97912.22
2022-08-23T15:13:21.728Z,97909.84
2022-08-23T15:16:28.814Z,97909.41
2022-08-23T15:19:31.005Z,97908.38
2022-08-23T15:22:33.121Z,97906.97
2022-08-23T15:25:44.203Z,97907.16
2022-08-23T15:28:46.340Z,97900.25
2022-08-23T15:31:48.763Z,97904.72
2022-08-23T15:34:52.330Z,97899.16
2022-08-23T15:37:56.285Z,97902.41
2022-08-23T15:40:58.388Z,97906.63
2022-08-23T15:44:01.652Z,97898.84
2022-08-23T15:47:05.647Z,97896.59
2022-08-23T15:50:09.006Z,97902.41
2022-08-23T15:53:11.082Z,97899.81
2022-08-23T15:56:19.891Z,97897.44
2022-08-23T15:59:22.230Z,97903.91
2022-08-23T16:02:24.589Z,97901.44
2022-08-23T16:05:26.607Z,97885.19
2022-08-23T16:08:31.649Z,97894.16
2022-08-23T16:11:34.031Z,97889.09
2022-08-23T16:14:36.858Z,97890.06
2022-08-23T16:17:42.442Z,97890.84
2022-08-23T16:20:45.197Z,97899.81
2022-08-23T16:23:47.546Z,97900.97
2022-08-23T16:26:50.520Z,97902.19
2022-08-23T16:29:52.774Z,97904.19
2022-08-23T16:32:55.900Z,97901.91
2022-08-23T16:35:57.954Z,97900.44
2022-08-23T16:38:59.957Z,97920.91
2022-08-23T16:42:04.717Z,97918.03
2022-08-23T16:45:07.847Z,97923.97
2022-08-23T16:48:14.578Z,97931.25
2022-08-23T16:51:17.968Z,97915.28
2022-08-23T16:54:20.832Z,97927.97
2022-08-23T16:57:23.144Z,97939.13
2022-08-23T17:00:25.300Z,97939.59
2022-08-23T17:03:28.375Z,97943.25
2022-08-23T17:06:30.200Z,97943.91
2022-08-23T17:09:34.844Z,97940.53
2022-08-23T17:12:40.422Z,97949.81
2022-08-23T17:15:43.133Z,97947.78
2022-08-23T17:18:45.741Z,97949.22
2022-08-23T17:21:47.999Z,97947.28
2022-08-23T17:24:50.031Z,97945.84
2022-08-23T17:27:57.643Z,97953.38
2022-08-23T17:30:59.806Z,97953.06
2022-08-23T17:34:04.099Z,97955.69
2022-08-23T17:37:17.848Z,97960.22
2022-08-23T17:40:24.568Z,97947.97
2022-08-23T17:43:26.777Z,97957.59
2022-08-23T17:46:29.139Z,97964.56
2022-08-23T17:49:32.091Z,97968.72
2022-08-23T17:52:34.195Z,97967.22
2022-08-23T17:55:36.649Z,97976.28
2022-08-23T17:58:39.276Z,97972.44
2022-08-23T18:01:42.028Z,97979.09
2022-08-23T18:04:44.614Z,97988.75
2022-08-23T18:07:46.668Z,97991.66
2022-08-23T18:10:49.375Z,97995.72
2022-08-23T18:13:51.918Z,97998.25
2022-08-23T18:16:54.936Z,98000.72
2022-08-23T18:19:57.304Z,98001.41
2022-08-23T18:23:00.259Z,98008.81
2022-08-23T18:26:07.929Z,98016.41
2022-08-23T18:29:12.334Z,98011.50
2022-08-23T18:32:15.637Z,98013.94
2022-08-23T18:35:17.922Z,98011.94
2022-08-23T18:38:20.442Z,98017.69
2022-08-23T18:41:22.996Z,98016.91
2022-08-23T18:44:25.674Z,98018.19
2022-08-23T18:47:27.853Z,98022.28
2022-08-23T18:50:29.917Z,98021.50
2022-08-23T18:53:32.285Z,98029.50
2022-08-23T18:56:35.260Z,98033.06
2022-08-23T18:59:37.570Z,98031.22
2022-08-23T19:02:40.065Z,98040.00
2022-08-23T19:05:42.932Z,98054.38
2022-08-23T19:08:45.635Z,98057.66
2022-08-23T19:11:48.166Z,98060.72
2022-08-23T19:14:50.738Z,98083.09
2022-08-23T19:17:58.106Z,98089.25
2022-08-23T19:21:03.699Z,98096.59
2022-08-23T19:24:06.037Z,98089.63
2022-08-23T19:27:09.814Z,98090.06
2022-08-23T19:30:13.989Z,98084.72
2022-08-23T19:33:19.909Z,98083.53
2022-08-23T19:36:44.765Z,98084.78
2022-08-23T19:39:45.287Z,98097.94
2022-08-23T19:42:51.689Z,98092.38
2022-08-23T19:45:53.982Z,98098.34
2022-08-23T19:48:56.671Z,98103.72
2022-08-23T19:51:59.224Z,98110.47
2022-08-23T19:55:05.172Z,98103.31
2022-08-23T19:58:11.798Z,98103.31
2022-08-23T20:01:14.159Z,98107.63
2022-08-23T20:04:16.985Z,98108.22
2022-08-23T20:07:19.342Z,98109.28
2022-08-23T20:10:21.920Z,98111.13
2022-08-23T20:13:25.053Z,98102.53
2022-08-23T20:16:28.330Z,98098.41
2022-08-23T20:19:31.892Z,98100.06
2022-08-23T20:22:53.179Z,98098.00
2022-08-23T20:25:55.148Z,98090.63
2022-08-23T22:03:16.668Z,98099.66
2022-08-23T22:06:19.591Z,98101.31
2022-08-23T22:09:25.827Z,98095.56
2022-08-23T22:12:33.704Z,98090.25
2022-08-23T22:15:35.899Z,98093.91
2022-08-23T22:18:37.831Z,98094.53
2022-08-23T22:21:39.680Z,98089.00
2022-08-23T22:24:42.261Z,98084.06
2022-08-23T22:27:47.217Z,98086.34
2022-08-23T22:30:48.996Z,98088.19
2022-08-23T22:33:51.740Z,98090.66
2022-08-23T22:36:53.554Z,98093.09
2022-08-23T22:39:56.549Z,98088.19
2022-08-23T22:42:58.376Z,98073.44
2022-08-23T22:46:03.212Z,98078.34
2022-08-23T22:49:05.064Z,98081.00
2022-08-23T22:52:08.580Z,98071.00
2022-08-23T22:55:10.458Z,98075.50
2022-08-23T22:58:12.257Z,98064.84
2022-08-23T23:01:23.296Z,98076.31
2022-08-23T23:04:27.321Z,98075.28
2022-08-23T23:07:47.573Z,98075.50
2022-08-23T23:10:49.568Z,98075.50
2022-08-23T23:13:51.583Z,98074.66
2022-08-23T23:16:53.509Z,98072.19
2022-08-23T23:20:13.961Z,98070.56
2022-08-23T23:23:21.998Z,98072.19
2022-08-23T23:26:23.832Z,98079.16
2022-08-23T23:29:26.933Z,98075.88
2022-08-23T23:32:28.856Z,98071.16
2022-08-23T23:35:30.674Z,98063.41
2022-08-23T23:38:32.465Z,98063.81
2022-08-23T23:41:37.068Z,98056.22
2022-08-23T23:44:38.853Z,98053.13
2022-08-23T23:47:41.479Z,98041.41
2022-08-23T23:50:46.614Z,98040.41
2022-08-23T23:53:49.284Z,98038.75
2022-08-23T23:56:51.105Z,98030.78
2022-08-23T23:59:53.526Z,98029.72
